Time;durP1;ratioP1;P1;durP2;ratioP2;P2;SDS_P1;SDS_P2;PMS_P1;PMS_P2;Temp;Humidity;BMP_temperature;BMP_pressure;BME280_temperature;BME280_humidity;BME280_pressure;Samples;Min_cycle;Max_cycle;Signal;HPM_P1;HPM_P2
2022/03/18 00:02:01;;;;;;;;;;;;;;;17.65;35.49;102856.06;5076433;28;827;-57
2022/03/18 00:04:27;;;;;;;;;;;;;;;17.08;36.40;102865.34;5075278;28;921;-57
2022/03/18 00:06:53;;;;;;;;;;;;;;;16.89;37.08;102860.88;5076006;28;904;-58
2022/03/18 00:09:18;;;;;;;;;;;;;;;16.87;36.79;102858.31;5108259;28;1187;-57
2022/03/18 00:11:44;;;;;;;;;;;;;;;16.86;36.90;102872.28;5075558;28;754;-58
2022/03/18 00:14:09;;;;;;;;;;;;;;;16.85;36.82;102865.09;5076210;28;748;-58
2022/03/18 00:16:35;;;;;;;;;;;;;;;17.26;36.17;102869.19;5068987;28;1424;-54
2022/03/18 00:19:01;;;;;;;;;;;;;;;17.70;35.31;102861.72;5075026;28;1909;-56
2022/03/18 00:21:27;;;;;;;;;;;;;;;17.93;34.75;102860.19;5076123;28;803;-56
2022/03/18 00:23:52;;;;;;;;;;;;;;;18.18;34.38;102861.97;5079212;28;964;-57
2022/03/18 00:26:18;;;;;;;;;;;;;;;18.10;34.48;102854.88;5079605;28;797;-57
2022/03/18 00:28:44;;;;;;;;;;;;;;;17.72;35.35;102859.56;5079544;28;733;-57
2022/03/18 00:31:09;;;;;;;;;;;;;;;17.43;35.58;102859.28;5112305;28;856;-57
2022/03/18 00:33:34;;;;;;;;;;;;;;;17.14;36.30;102857.25;5078906;28;871;-57
2022/03/18 00:36:01;;;;;;;;;;;;;;;16.97;36.78;102857.84;5079715;28;757;-56
2022/03/18 00:38:27;;;;;;;;;;;;;;;16.81;37.12;102859.19;5079469;28;1984;-58
2022/03/18 00:40:54;;;;;;;;;;;;;;;16.90;36.95;102849.66;5079281;28;789;-57
2022/03/18 00:43:19;;;;;;;;;;;;;;;17.20;36.13;102854.44;5111320;28;891;-55
2022/03/18 00:45:45;;;;;;;;;;;;;;;17.57;35.49;102845.34;5079412;28;742;-56
2022/03/18 00:53:38;;;;;;;;;;;;;;;17.09;36.46;102845.03;5079541;28;835;-57
2022/03/18 00:56:04;;;;;;;;;;;;;;;16.83;36.58;102843.34;5078243;28;845;-55
2022/03/18 00:58:32;;;;;;;;;;;;;;;16.77;36.98;102846.97;5078974;28;1984;-55
2022/03/18 01:00:58;;;;;;;;;;;;;;;16.70;37.16;102844.28;5078808;28;1489;-54
2022/03/18 01:03:23;;;;;;;;;;;;;;;17.00;36.75;102845.53;5079024;28;851;-55
2022/03/18 01:05:48;;;;;;;;;;;;;;;17.44;35.79;102836.19;5078911;28;1356;-55
2022/03/18 01:08:14;;;;;;;;;;;;;;;17.78;35.18;102849.53;5095640;28;768;-57
2022/03/18 01:10:39;;;;;;;;;;;;;;;17.75;34.93;102839.88;5079142;28;841;-57
2022/03/18 01:13:05;;;;;;;;;;;;;;;17.62;35.13;102848.28;5078897;28;777;-58
2022/03/18 01:15:30;;;;;;;;;;;;;;;17.24;36.05;102846.59;5078643;28;1145;-57
2022/03/18 01:17:56;;;;;;;;;;;;;;;17.04;36.58;102850.38;5077966;28;1902;-56
2022/03/18 01:20:21;;;;;;;;;;;;;;;16.87;36.81;102858.31;5078893;28;959;-57
2022/03/18 01:22:47;;;;;;;;;;;;;;;16.64;37.21;102860.84;5078453;28;758;-57
2022/03/18 01:25:12;;;;;;;;;;;;;;;16.77;37.04;102853.34;5078823;28;871;-57
2022/03/18 01:27:38;;;;;;;;;;;;;;;17.35;35.93;102844.97;5078282;28;761;-56
2022/03/18 01:30:03;;;;;;;;;;;;;;;17.77;35.04;102856.13;5078457;28;845;-57
2022/03/18 01:32:29;;;;;;;;;;;;;;;17.74;35.19;102849.19;5078677;28;822;-57
2022/03/18 01:34:54;;;;;;;;;;;;;;;17.30;35.90;102853.91;5076841;28;777;-57
2022/03/18 01:37:20;;;;;;;;;;;;;;;17.01;36.40;102853.59;5078650;28;1901;-58
2022/03/18 01:39:45;;;;;;;;;;;;;;;16.90;36.78;102851.53;5078689;28;916;-57
2022/03/18 01:42:11;;;;;;;;;;;;;;;16.90;36.59;102857.03;5078819;28;881;-59
2022/03/18 01:44:40;;;;;;;;;;;;;;;16.87;36.83;102860.22;5078396;28;818;-54
2022/03/18 01:47:06;;;;;;;;;;;;;;;17.36;35.92;102850.25;5078022;28;729;-55
2022/03/18 01:49:31;;;;;;;;;;;;;;;17.71;35.12;102854.28;5077978;28;982;-53
2022/03/18 01:51:57;;;;;;;;;;;;;;;17.69;35.06;102857.28;5078240;28;841;-54
2022/03/18 01:57:06;;;;;;;;;;;;;;;16.95;36.30;102857.22;5105711;28;1955;-55
2022/03/18 01:59:32;;;;;;;;;;;;;;;16.84;36.50;102855.16;5077898;28;988;-54
2022/03/18 02:01:57;;;;;;;;;;;;;;;16.96;36.62;102850.66;5110034;27;975;-55
2022/03/18 02:04:24;;;;;;;;;;;;;;;16.96;36.59;102856.16;5078217;28;835;-52
2022/03/18 02:06:49;;;;;;;;;;;;;;;17.33;35.70;102852.63;5078695;28;832;-51
2022/03/18 02:09:15;;;;;;;;;;;;;;;17.75;35.08;102861.03;5077781;28;879;-54
2022/03/18 02:11:40;;;;;;;;;;;;;;;17.71;35.10;102860.66;5077643;28;864;-54
2022/03/18 02:14:06;;;;;;;;;;;;;;;17.32;35.67;102857.28;5077727;28;903;-55
2022/03/18 02:16:31;;;;;;;;;;;;;;;17.04;36.00;102863.25;5077731;28;1179;-55
2022/03/18 02:18:56;;;;;;;;;;;;;;;16.80;36.55;102868.50;5077891;28;1979;-55
2022/03/18 02:21:22;;;;;;;;;;;;;;;17.04;36.08;102875.13;5077957;28;744;-53
2022/03/18 02:23:47;;;;;;;;;;;;;;;17.64;35.17;102876.38;5077793;28;840;-55
2022/03/18 02:26:15;;;;;;;;;;;;;;;17.79;34.63;102871.34;5110219;27;841;-55
2022/03/18 02:28:41;;;;;;;;;;;;;;;17.42;35.47;102879.59;5077783;28;821;-55
2022/03/18 02:31:06;;;;;;;;;;;;;;;17.32;35.72;102881.19;5097161;28;829;-54
2022/03/18 02:33:32;;;;;;;;;;;;;;;16.98;36.04;102878.75;5088651;28;911;-55
2022/03/18 02:35:57;;;;;;;;;;;;;;;16.88;36.36;102878.38;5078032;28;797;-53
2022/03/18 02:38:23;;;;;;;;;;;;;;;17.08;35.96;102890.09;5076712;28;1971;-55
2022/03/18 02:40:48;;;;;;;;;;;;;;;17.64;35.20;102892.88;5077257;28;1395;-55
2022/03/18 02:43:14;;;;;;;;;;;;;;;17.83;34.76;102892.91;5077641;28;730;-54
2022/03/18 02:45:39;;;;;;;;;;;;;;;17.44;35.28;102887.63;5109041;28;1114;-56
2022/03/18 02:48:06;;;;;;;;;;;;;;;17.14;35.75;102895.72;5077004;28;833;-55
2022/03/18 02:50:31;;;;;;;;;;;;;;;16.98;36.06;102902.66;5076966;28;891;-57
2022/03/18 02:52:57;;;;;;;;;;;;;;;17.14;35.95;102898.47;5076930;28;911;-55
2022/03/18 02:55:22;;;;;;;;;;;;;;;17.50;35.36;102896.88;5077217;28;819;-55
2022/03/18 02:57:48;;;;;;;;;;;;;;;17.86;34.49;102904.28;5076915;28;1902;-54
2022/03/18 03:00:13;;;;;;;;;;;;;;;17.45;35.24;102901.13;5076742;28;761;-55
2022/03/18 03:02:39;;;;;;;;;;;;;;;17.09;35.75;102916.50;5076916;28;856;-54
2022/03/18 03:08:00;;;;;;;;;;;;;;;17.06;36.13;102916.94;5076689;28;751;-56
2022/03/18 03:10:27;;;;;;;;;;;;;;;17.57;35.18;102905.88;5076977;28;824;-54
2022/03/18 03:12:54;;;;;;;;;;;;;;;17.88;34.59;102918.66;5076745;28;853;-55
2022/03/18 03:15:19;;;;;;;;;;;;;;;17.41;35.29;102924.66;5076288;28;989;-53
2022/03/18 03:17:45;;;;;;;;;;;;;;;17.05;35.97;102920.75;5076395;28;1918;-55
2022/03/18 03:20:10;;;;;;;;;;;;;;;16.91;35.98;102920.03;5076948;28;730;-55
2022/03/18 03:22:36;;;;;;;;;;;;;;;16.89;36.14;102935.91;5076095;28;877;-55
2022/03/18 03:25:02;;;;;;;;;;;;;;;16.90;36.45;102933.97;5077162;28;931;-56
2022/03/18 03:27:30;;;;;;;;;;;;;;;17.17;35.92;102936.53;5077202;28;813;-55
2022/03/18 03:30:06;;;;;;;;;;;;;;;17.52;35.27;102936.84;5075999;28;761;-56
2022/03/18 03:32:31;;;;;;;;;;;;;;;17.61;34.81;102940.97;5076664;28;876;-56
2022/03/18 03:34:57;;;;;;;;;;;;;;;17.76;34.69;102946.09;5076470;28;876;-57
2022/03/18 03:37:23;;;;;;;;;;;;;;;17.55;34.95;102941.03;5076463;28;1918;-54
2022/03/18 03:39:48;;;;;;;;;;;;;;;17.08;35.51;102942.31;5076487;28;781;-55
2022/03/18 03:42:14;;;;;;;;;;;;;;;16.91;36.18;102939.28;5076019;28;856;-55
2022/03/18 03:44:39;;;;;;;;;;;;;;;17.35;35.45;102941.22;5076511;28;926;-55
2022/03/18 03:47:05;;;;;;;;;;;;;;;17.74;34.44;102951.00;5076478;28;786;-56
2022/03/18 03:49:30;;;;;;;;;;;;;;;17.71;34.59;102945.94;5076161;28;824;-56
2022/03/18 03:51:56;;;;;;;;;;;;;;;17.33;35.46;102952.44;5076373;28;788;-56
2022/03/18 03:54:21;;;;;;;;;;;;;;;17.03;35.78;102936.63;5076006;28;964;-56
2022/03/18 03:56:47;;;;;;;;;;;;;;;16.89;36.21;102955.13;5076515;28;792;-53
2022/03/18 03:59:12;;;;;;;;;;;;;;;16.72;36.48;102956.72;5080356;28;1984;-55
2022/03/18 04:01:38;;;;;;;;;;;;;;;18.15;34.01;102962.41;5080609;28;856;-56
2022/03/18 04:04:04;;;;;;;;;;;;;;;18.93;32.36;102952.44;5080292;28;870;-56
2022/03/18 04:06:30;;;;;;;;;;;;;;;19.32;31.87;102960.25;5080905;28;854;-56
2022/03/18 04:08:55;;;;;;;;;;;;;;;20.00;30.73;102952.44;5079901;28;895;-55
2022/03/18 04:11:21;;;;;;;;;;;;;;;18.94;32.23;102953.25;5080308;28;892;-55
2022/03/18 04:13:46;;;;;;;;;;;;;;;18.05;33.88;102970.38;5079922;28;884;-56
2022/03/18 04:16:12;;;;;;;;;;;;;;;17.90;34.30;102970.72;5080367;28;1166;-56
2022/03/18 04:18:37;;;;;;;;;;;;;;;17.85;34.06;102974.16;5079911;28;1902;-56
2022/03/18 04:21:03;;;;;;;;;;;;;;;17.40;35.14;102967.00;5079319;28;843;-56
2022/03/18 04:23:28;;;;;;;;;;;;;;;17.36;35.06;102975.91;5080194;28;770;-55
2022/03/18 04:25:54;;;;;;;;;;;;;;;17.02;35.56;102976.19;5098971;28;845;-54
2022/03/18 04:28:19;;;;;;;;;;;;;;;17.02;35.95;102969.84;5099936;28;730;-55
2022/03/18 04:30:45;;;;;;;;;;;;;;;17.44;34.88;102976.47;5099054;28;849;-56
2022/03/18 04:33:10;;;;;;;;;;;;;;;17.86;34.36;102980.50;5091866;28;885;-55
2022/03/18 04:35:36;;;;;;;;;;;;;;;18.01;34.04;102971.91;5079967;28;834;-55
2022/03/18 04:38:01;;;;;;;;;;;;;;;17.66;34.50;102980.72;5079998;28;1980;-55
2022/03/18 04:40:27;;;;;;;;;;;;;;;17.44;34.84;102973.72;5079731;28;817;-54
2022/03/18 04:42:52;;;;;;;;;;;;;;;17.22;35.09;102980.69;5079486;28;887;-55
2022/03/18 04:45:18;;;;;;;;;;;;;;;16.96;35.80;102979.84;5079195;28;773;-54
2022/03/18 04:47:43;;;;;;;;;;;;;;;17.30;35.29;102983.16;5079072;28;884;-55
2022/03/18 04:50:09;;;;;;;;;;;;;;;17.71;34.25;102984.47;5079752;28;757;-55
2022/03/18 04:52:34;;;;;;;;;;;;;;;17.73;34.08;102990.56;5079149;28;896;-55
2022/03/18 04:55:00;;;;;;;;;;;;;;;17.34;34.86;102989.88;5079401;28;996;-56
2022/03/18 04:57:26;;;;;;;;;;;;;;;16.89;35.51;102998.28;5079654;28;1985;-54
2022/03/18 04:59:56;;;;;;;;;;;;;;;16.87;35.73;103001.22;5078849;28;844;-53
2022/03/18 05:02:21;;;;;;;;;;;;;;;17.27;35.06;103000.94;5079361;28;907;-55
2022/03/18 05:04:48;;;;;;;;;;;;;;;17.63;34.26;102993.03;5079337;28;1125;-55
2022/03/18 05:07:14;;;;;;;;;;;;;;;17.59;34.41;102995.38;5078929;28;861;-54
2022/03/18 05:09:40;;;;;;;;;;;;;;;17.29;34.72;103003.47;5079193;28;869;-53
2022/03/18 05:12:09;;;;;;;;;;;;;;;17.08;35.03;103012.94;5078980;28;869;-56
2022/03/18 05:14:35;;;;;;;;;;;;;;;16.90;35.36;103025.53;5078447;28;1050;-55
2022/03/18 05:17:01;;;;;;;;;;;;;;;17.15;34.89;103026.63;5079142;28;900;-57
2022/03/18 05:19:28;;;;;;;;;;;;;;;17.53;33.97;103036.69;5078423;28;1910;-56
2022/03/18 05:21:54;;;;;;;;;;;;;;;17.96;33.05;103035.88;5078294;28;824;-55
2022/03/18 05:24:19;;;;;;;;;;;;;;;17.64;33.29;103021.38;5085780;28;922;-55
2022/03/18 05:26:45;;;;;;;;;;;;;;;17.13;34.44;103048.03;5098507;28;784;-53
2022/03/18 05:29:11;;;;;;;;;;;;;;;16.99;34.76;103030.78;5097922;28;902;-52
2022/03/18 05:31:36;;;;;;;;;;;;;;;16.80;34.81;103036.09;5098696;28;900;-54
2022/03/18 05:34:02;;;;;;;;;;;;;;;16.94;34.73;103036.91;5085517;28;826;-50
2022/03/18 05:36:27;;;;;;;;;;;;;;;16.97;34.37;103043.88;5077837;28;764;-55
2022/03/18 05:38:53;;;;;;;;;;;;;;;17.31;33.79;103048.09;5078752;28;1906;-54
2022/03/18 05:41:18;;;;;;;;;;;;;;;17.55;33.41;103040.91;5078881;28;903;-49
2022/03/18 05:43:44;;;;;;;;;;;;;;;17.86;32.96;103043.81;5078225;28;725;-53
2022/03/18 05:46:11;;;;;;;;;;;;;;;17.93;32.54;103044.59;5078691;28;1362;-54
2022/03/18 05:48:36;;;;;;;;;;;;;;;17.64;33.15;103052.47;5078149;28;867;-54
2022/03/18 05:51:02;;;;;;;;;;;;;;;17.17;33.95;103057.50;5077979;28;872;-54
2022/03/18 05:53:28;;;;;;;;;;;;;;;17.07;34.21;103050.56;5077982;28;880;-51
2022/03/18 05:58:38;;;;;;;;;;;;;;;16.90;34.48;103054.91;5077759;28;1950;-52
2022/03/18 06:01:03;;;;;;;;;;;;;;;16.93;34.32;103060.81;5078539;28;1004;-55
2022/03/18 06:03:29;;;;;;;;;;;;;;;17.06;34.17;103054.38;5077411;28;784;-53
2022/03/18 06:05:54;;;;;;;;;;;;;;;17.54;33.30;103052.97;5078156;28;778;-52
2022/03/18 06:13:48;;;;;;;;;;;;;;;17.61;32.92;103044.66;5077432;28;818;-53
2022/03/18 06:16:13;;;;;;;;;;;;;;;17.27;33.57;103044.09;5077134;28;968;-56
2022/03/18 06:18:39;;;;;;;;;;;;;;;16.95;34.03;103040.50;5077445;28;1972;-54
2022/03/18 06:21:07;;;;;;;;;;;;;;;17.04;34.01;103045.53;5076917;28;809;-56
2022/03/18 06:23:33;;;;;;;;;;;;;;;17.06;34.11;103037.06;5077501;28;921;-54
2022/03/18 06:26:00;;;;;;;;;;;;;;;17.29;33.54;103055.69;5077928;28;792;-55
2022/03/18 06:28:26;;;;;;;;;;;;;;;17.56;32.94;103053.59;5076904;28;811;-54
2022/03/18 06:30:52;;;;;;;;;;;;;;;17.87;32.30;103049.06;5077220;28;993;-56
2022/03/18 06:33:17;;;;;;;;;;;;;;;17.84;32.43;103065.19;5076943;28;844;-55
2022/03/18 06:35:43;;;;;;;;;;;;;;;17.71;32.49;103052.41;5077257;28;793;-54
2022/03/18 06:38:08;;;;;;;;;;;;;;;17.35;33.03;103062.22;5077304;28;1913;-55
2022/03/18 06:40:34;;;;;;;;;;;;;;;17.03;33.08;103065.81;5077519;28;952;-52
2022/03/18 06:42:59;;;;;;;;;;;;;;;17.00;33.19;103055.28;5077009;28;835;-54
2022/03/18 06:45:25;;;;;;;;;;;;;;;17.04;32.91;103072.16;5076018;28;1077;-52
2022/03/18 06:47:50;;;;;;;;;;;;;;;17.17;32.57;103046.50;5075358;28;1159;-55
2022/03/18 06:50:16;;;;;;;;;;;;;;;17.17;32.51;103049.25;5074949;28;754;-55
2022/03/18 06:52:42;;;;;;;;;;;;;;;17.27;32.54;103044.94;5075016;28;762;-55
2022/03/18 06:55:08;;;;;;;;;;;;;;;17.58;31.79;103045.13;5094706;28;816;-54
2022/03/18 06:57:33;;;;;;;;;;;;;;;17.56;31.94;103050.03;5096158;28;1913;-56
2022/03/18 06:59:59;;;;;;;;;;;;;;;17.13;32.41;103051.59;5096332;28;824;-54
2022/03/18 07:02:26;;;;;;;;;;;;;;;16.95;32.93;103060.59;5096443;28;825;-55
2022/03/18 07:04:51;;;;;;;;;;;;;;;16.88;32.98;103035.03;5076817;27;977;-56
2022/03/18 07:07:17;;;;;;;;;;;;;;;17.09;32.67;103053.94;5076385;28;817;-53
2022/03/18 07:09:42;;;;;;;;;;;;;;;17.43;32.28;103050.94;5076586;28;848;-54
2022/03/18 07:12:08;;;;;;;;;;;;;;;17.71;31.73;103055.16;5076292;28;911;-54
2022/03/18 07:14:34;;;;;;;;;;;;;;;17.82;31.68;103057.16;5076685;28;1079;-54
2022/03/18 07:19:44;;;;;;;;;;;;;;;17.32;32.18;103060.78;5075623;28;801;-52
2022/03/18 07:22:11;;;;;;;;;;;;;;;17.15;32.74;103052.19;5076833;28;1434;-55
2022/03/18 07:24:36;;;;;;;;;;;;;;;16.96;32.99;103054.03;5077073;28;757;-52
2022/03/18 07:27:01;;;;;;;;;;;;;;;17.25;32.61;103060.81;5076292;28;816;-55
2022/03/18 07:29:28;;;;;;;;;;;;;;;17.83;31.59;103063.53;5076759;28;829;-54
2022/03/18 07:31:55;;;;;;;;;;;;;;;17.95;31.04;103062.59;5075566;28;857;-52
2022/03/18 07:34:21;;;;;;;;;;;;;;;17.30;32.47;103076.66;5076050;28;951;-53
2022/03/18 07:36:47;;;;;;;;;;;;;;;17.08;32.62;103060.53;5076380;28;828;-53
2022/03/18 07:39:13;;;;;;;;;;;;;;;17.01;32.83;103072.59;5076539;28;1974;-54
2022/03/18 07:41:38;;;;;;;;;;;;;;;16.99;32.86;103081.06;5076320;28;945;-55
2022/03/18 07:44:04;;;;;;;;;;;;;;;17.31;32.14;103061.84;5109226;28;1265;-55
2022/03/18 07:46:30;;;;;;;;;;;;;;;17.61;31.85;103069.41;5076482;28;841;-55
2022/03/18 07:48:55;;;;;;;;;;;;;;;17.73;31.66;103070.38;5075570;28;1034;-53
2022/03/18 07:51:21;;;;;;;;;;;;;;;17.70;31.66;103059.84;5076889;28;750;-56
2022/03/18 07:53:46;;;;;;;;;;;;;;;17.39;31.89;103072.56;5076633;28;805;-54
2022/03/18 07:56:12;;;;;;;;;;;;;;;17.25;31.97;103068.22;5075919;28;852;-56
2022/03/18 07:58:37;;;;;;;;;;;;;;;16.99;32.60;103072.81;5076089;28;1913;-54
2022/03/18 08:01:03;;;;;;;;;;;;;;;17.18;32.66;103076.53;5075918;28;1114;-56
2022/03/18 08:03:28;;;;;;;;;;;;;;;17.65;31.57;103072.56;5082664;28;942;-51
2022/03/18 08:05:54;;;;;;;;;;;;;;;17.96;30.91;103068.91;5095576;28;872;-56
2022/03/18 08:08:19;;;;;;;;;;;;;;;17.52;31.69;103068.88;5069916;28;842;-55
2022/03/18 08:10:45;;;;;;;;;;;;;;;17.15;32.44;103052.19;5075454;28;801;-56
2022/03/18 08:13:10;;;;;;;;;;;;;;;16.95;32.81;103063.34;5076523;28;829;-55
2022/03/18 08:15:36;;;;;;;;;;;;;;;16.87;33.00;103058.06;5108593;28;995;-54
2022/03/18 08:18:02;;;;;;;;;;;;;;;17.11;32.52;103051.00;5075028;28;2022;-54
2022/03/18 08:20:28;;;;;;;;;;;;;;;17.42;32.12;103052.88;5075379;28;836;-53
2022/03/18 08:22:53;;;;;;;;;;;;;;;17.74;31.35;103044.56;5075607;28;833;-56
2022/03/18 08:25:19;;;;;;;;;;;;;;;17.91;30.85;103046.75;5107843;28;964;-53
2022/03/18 08:27:45;;;;;;;;;;;;;;;18.04;30.61;103043.84;5075842;28;782;-54
2022/03/18 08:30:11;;;;;;;;;;;;;;;17.55;31.39;103042.81;5075682;28;984;-55
2022/03/18 08:32:37;;;;;;;;;;;;;;;17.19;32.31;103047.13;5075841;28;839;-54
2022/03/18 08:35:02;;;;;;;;;;;;;;;17.07;32.14;103019.50;5075615;28;808;-55
2022/03/18 08:40:12;;;;;;;;;;;;;;;16.88;32.56;103054.25;5075714;28;846;-52
2022/03/18 08:42:38;;;;;;;;;;;;;;;17.24;32.07;103044.56;5076079;28;761;-54
2022/03/18 08:45:03;;;;;;;;;;;;;;;17.30;31.97;103046.41;5079190;28;996;-60
2022/03/18 08:47:29;;;;;;;;;;;;;;;17.64;31.44;103055.22;5079448;28;801;-58
2022/03/18 08:49:54;;;;;;;;;;;;;;;17.54;31.23;103057.63;5079371;28;946;-59
2022/03/18 08:52:20;;;;;;;;;;;;;;;17.05;32.42;103052.69;5079461;28;882;-58
2022/03/18 08:54:45;;;;;;;;;;;;;;;16.95;32.32;103052.34;5079468;28;843;-53
2022/03/18 08:57:10;;;;;;;;;;;;;;;16.81;32.72;103061.69;5078956;28;932;-59
2022/03/18 08:59:36;;;;;;;;;;;;;;;16.96;32.58;103058.66;5079356;28;1910;-59
2022/03/18 09:02:02;;;;;;;;;;;;;;;17.65;31.23;103062.41;5079009;28;792;-58
2022/03/18 09:04:27;;;;;;;;;;;;;;;17.67;31.22;103053.91;5079097;28;817;-59
2022/03/18 09:06:52;;;;;;;;;;;;;;;17.39;31.53;103069.81;5079173;28;836;-59
2022/03/18 09:09:18;;;;;;;;;;;;;;;17.00;32.26;103057.16;5079246;28;836;-59
2022/03/18 09:11:43;;;;;;;;;;;;;;;17.02;32.46;103064.13;5078686;28;959;-59
2022/03/18 09:14:10;;;;;;;;;;;;;;;17.27;32.04;103060.59;5078560;28;979;-59
2022/03/18 09:16:37;;;;;;;;;;;;;;;17.73;31.28;103062.13;5078919;28;1141;-59
2022/03/18 09:19:03;;;;;;;;;;;;;;;18.01;30.65;103071.84;5078246;28;1981;-60
2022/03/18 09:21:29;;;;;;;;;;;;;;;18.18;30.54;103071.25;5078904;28;838;-60
2022/03/18 09:23:54;;;;;;;;;;;;;;;18.11;30.36;103080.41;5079098;28;817;-60
2022/03/18 09:26:19;;;;;;;;;;;;;;;17.61;31.18;103083.19;5078332;28;905;-58
2022/03/18 09:28:45;;;;;;;;;;;;;;;17.19;32.11;103074.59;5078433;28;849;-60
2022/03/18 09:31:10;;;;;;;;;;;;;;;17.08;32.16;103082.50;5098342;28;803;-60
2022/03/18 09:33:36;;;;;;;;;;;;;;;17.00;32.38;103077.28;5089030;28;957;-60
2022/03/18 09:36:01;;;;;;;;;;;;;;;17.35;31.79;103076.84;5078678;28;1274;-59
2022/03/18 09:38:27;;;;;;;;;;;;;;;17.79;31.20;103075.00;5078388;28;1913;-59
2022/03/18 09:40:52;;;;;;;;;;;;;;;18.07;30.60;103064.59;5077705;28;880;-59
2022/03/18 09:43:18;;;;;;;;;;;;;;;18.18;30.20;103072.09;5078700;28;833;-58
2022/03/18 09:45:44;;;;;;;;;;;;;;;18.30;30.10;103069.44;5078436;28;856;-60
2022/03/18 09:48:10;;;;;;;;;;;;;;;17.95;30.87;103061.75;5077721;28;879;-57
2022/03/18 09:50:36;;;;;;;;;;;;;;;17.65;31.26;103067.06;5078528;28;744;-59
2022/03/18 09:53:01;;;;;;;;;;;;;;;17.38;31.94;103073.63;5078085;28;829;-59
2022/03/18 09:55:30;;;;;;;;;;;;;;;17.12;32.27;103071.91;5077188;28;784;-58
2022/03/18 09:57:55;;;;;;;;;;;;;;;17.27;32.14;103077.09;5077929;28;1914;-59
2022/03/18 10:00:20;;;;;;;;;;;;;;;17.69;31.49;103063.63;5078182;28;829;-59
2022/03/18 10:02:46;;;;;;;;;;;;;;;17.95;31.10;103067.25;5077594;28;825;-58
2022/03/18 10:05:13;;;;;;;;;;;;;;;18.24;30.35;103056.56;5077598;28;1068;-59
2022/03/18 10:07:39;;;;;;;;;;;;;;;18.16;30.58;103043.09;5078439;28;791;-59
2022/03/18 10:10:14;;;;;;;;;;;;;;;17.61;31.50;103058.41;5077770;28;828;-59
2022/03/18 10:12:41;;;;;;;;;;;;;;;17.22;32.27;103049.41;5077956;28;845;-59
2022/03/18 10:15:10;;;;;;;;;;;;;;;17.21;32.16;103056.84;5077771;28;1559;-59
2022/03/18 10:17:39;;;;;;;;;;;;;;;17.07;32.38;103042.34;5076736;28;1980;-58
2022/03/18 10:20:04;;;;;;;;;;;;;;;17.29;32.21;103044.69;5075256;28;814;-60
2022/03/18 10:22:30;;;;;;;;;;;;;;;17.83;31.03;103045.09;5077816;28;961;-59
2022/03/18 10:24:55;;;;;;;;;;;;;;;18.07;30.46;103040.63;5077534;28;860;-59
2022/03/18 10:27:21;;;;;;;;;;;;;;;17.33;31.91;103051.44;5077406;28;786;-59
2022/03/18 10:29:50;;;;;;;;;;;;;;;17.15;32.20;103043.13;5077556;28;766;-59
2022/03/18 10:32:16;;;;;;;;;;;;;;;16.91;32.59;103043.72;5077083;28;891;-58
2022/03/18 10:37:38;;;;;;;;;;;;;;;17.04;32.12;103022.69;5077400;28;1984;-60
2022/03/18 10:40:04;;;;;;;;;;;;;;;17.63;31.56;103034.28;5077272;28;821;-59
2022/03/18 10:42:30;;;;;;;;;;;;;;;17.89;30.92;103035.09;5077253;28;872;-58
2022/03/18 10:44:59;;;;;;;;;;;;;;;18.11;30.39;103039.09;5076810;28;899;-53
2022/03/18 10:47:37;;;;;;;;;;;;;;;18.02;30.63;103026.72;5076916;28;799;-54
2022/03/18 10:50:08;;;;;;;;;;;;;;;17.65;31.45;103040.41;5071742;28;767;-54
2022/03/18 10:52:34;;;;;;;;;;;;;;;17.19;32.15;103036.13;5077277;28;805;-56
2022/03/18 10:55:19;;;;;;;;;;;;;;;17.18;32.02;103042.66;5076765;28;836;-53
2022/03/18 10:58:08;;;;;;;;;;;;;;;17.20;32.24;103037.81;5076614;28;1906;-54
2022/03/18 11:00:34;;;;;;;;;;;;;;;17.26;32.19;103036.91;5069237;28;1054;-56
2022/03/18 11:03:00;;;;;;;;;;;;;;;17.86;31.15;103038.31;5076623;28;956;-55
2022/03/18 11:05:27;;;;;;;;;;;;;;;18.08;30.47;103031.31;5077017;28;840;-57
2022/03/18 11:07:53;;;;;;;;;;;;;;;18.34;30.40;103053.25;5077014;28;803;-54
2022/03/18 11:13:03;;;;;;;;;;;;;;;17.67;31.44;103049.28;5076776;28;777;-57
2022/03/18 11:15:32;;;;;;;;;;;;;;;17.45;31.83;103054.34;5076627;28;1015;-56
2022/03/18 11:17:57;;;;;;;;;;;;;;;17.09;32.37;103048.44;5076448;28;1902;-57
2022/03/18 11:20:26;;;;;;;;;;;;;;;17.12;32.31;103046.31;5076968;28;877;-55
2022/03/18 11:22:51;;;;;;;;;;;;;;;17.25;32.08;103059.97;5076330;28;906;-57
2022/03/18 11:25:17;;;;;;;;;;;;;;;17.33;32.10;103064.38;5077040;28;720;-56
2022/03/18 11:27:44;;;;;;;;;;;;;;;17.74;31.15;103058.31;5102390;28;785;-57
2022/03/18 11:30:23;;;;;;;;;;;;;;;18.00;30.82;103061.06;5096354;28;819;-55
2022/03/18 11:33:07;;;;;;;;;;;;;;;18.21;30.35;103051.50;5093648;28;891;-55
2022/03/18 11:35:48;;;;;;;;;;;;;;;17.85;30.89;103058.63;5076680;28;810;-54
2022/03/18 11:38:14;;;;;;;;;;;;;;;17.68;31.11;103050.09;5076203;28;1902;-54
2022/03/18 11:40:59;;;;;;;;;;;;;;;17.28;31.87;103062.28;5108589;28;860;-56
2022/03/18 11:43:29;;;;;;;;;;;;;;;17.41;31.92;103053.91;5076709;28;920;-53
2022/03/18 11:46:13;;;;;;;;;;;;;;;17.43;31.75;103054.56;5076409;28;803;-54
2022/03/18 11:48:41;;;;;;;;;;;;;;;17.92;30.78;103062.19;5075801;28;832;-54
2022/03/18 11:51:26;;;;;;;;;;;;;;;18.07;30.60;103059.91;5076836;28;801;-54
2022/03/18 11:53:53;;;;;;;;;;;;;;;18.29;30.56;103051.22;5076012;28;872;-53
2022/03/18 11:56:19;;;;;;;;;;;;;;;18.13;30.71;103049.88;5076468;28;723;-55
2022/03/18 11:58:45;;;;;;;;;;;;;;;17.76;31.19;103039.66;5075924;28;1902;-54
2022/03/18 12:01:29;;;;;;;;;;;;;;;17.49;31.75;103057.47;5107904;28;919;-55
2022/03/18 12:03:54;;;;;;;;;;;;;;;17.21;32.07;103045.00;5076217;28;867;-56
2022/03/18 12:06:20;;;;;;;;;;;;;;;17.21;32.34;103042.25;5076243;28;833;-55
2022/03/18 12:08:52;;;;;;;;;;;;;;;17.30;32.35;103054.66;5075887;28;748;-56
2022/03/18 12:11:29;;;;;;;;;;;;;;;18.54;30.29;103042.03;5076087;28;837;-55
2022/03/18 12:13:55;;;;;;;;;;;;;;;18.00;30.95;103044.53;5075708;28;828;-55
2022/03/18 12:16:21;;;;;;;;;;;;;;;17.59;31.62;103044.06;5075863;28;1353;-56
2022/03/18 12:18:46;;;;;;;;;;;;;;;17.26;32.29;103042.41;5077425;28;1902;-55
2022/03/18 12:21:13;;;;;;;;;;;;;;;17.10;32.21;103055.63;5080257;28;734;-57
2022/03/18 12:23:38;;;;;;;;;;;;;;;16.87;33.03;103066.31;5079974;28;861;-55
2022/03/18 12:26:07;;;;;;;;;;;;;;;17.46;32.04;103064.28;5079540;28;903;-55
2022/03/18 12:28:45;;;;;;;;;;;;;;;17.63;31.31;103061.81;5079613;28;748;-56
2022/03/18 12:31:14;;;;;;;;;;;;;;;17.47;31.79;103071.44;5079322;28;829;-55
2022/03/18 12:33:39;;;;;;;;;;;;;;;17.38;32.15;103062.63;5080024;28;879;-54
2022/03/18 12:36:05;;;;;;;;;;;;;;;17.30;32.15;103065.66;5079864;28;774;-56
2022/03/18 12:38:31;;;;;;;;;;;;;;;17.40;32.03;103070.66;5079567;28;1906;-56
2022/03/18 12:40:58;;;;;;;;;;;;;;;18.00;30.89;103070.16;5079196;28;1518;-55
2022/03/18 12:43:25;;;;;;;;;;;;;;;18.29;30.31;103073.25;5080119;28;845;-56
2022/03/18 12:45:50;;;;;;;;;;;;;;;18.33;30.30;103068.09;5079314;28;726;-57
2022/03/18 12:48:17;;;;;;;;;;;;;;;17.78;31.40;103073.31;5079000;28;1027;-57
2022/03/18 12:50:43;;;;;;;;;;;;;;;17.48;31.96;103077.81;5079122;28;1347;-56
2022/03/18 12:53:14;;;;;;;;;;;;;;;17.02;32.65;103077.88;5079329;28;853;-56
2022/03/18 12:55:39;;;;;;;;;;;;;;;17.03;32.69;103082.31;5079292;28;1502;-55
2022/03/18 12:58:16;;;;;;;;;;;;;;;17.30;32.27;103071.16;5112209;28;1909;-55
2022/03/18 13:00:42;;;;;;;;;;;;;;;17.47;31.86;103076.09;5074874;28;1580;-55
2022/03/18 13:03:15;;;;;;;;;;;;;;;18.94;29.48;103091.09;5070401;28;816;-56
2022/03/18 13:05:40;;;;;;;;;;;;;;;19.18;29.24;103075.50;5078884;28;853;-57
2022/03/18 13:08:07;;;;;;;;;;;;;;;19.60;28.71;103088.41;5078819;28;841;-55
2022/03/18 13:10:32;;;;;;;;;;;;;;;18.76;29.81;103084.53;5079285;28;853;-57
2022/03/18 13:13:08;;;;;;;;;;;;;;;17.96;31.05;103088.19;5079065;28;820;-57
2022/03/18 13:15:34;;;;;;;;;;;;;;;17.75;31.49;103090.28;5078602;28;1205;-57
2022/03/18 13:18:10;;;;;;;;;;;;;;;17.56;31.86;103100.38;5078518;28;1964;-57
2022/03/18 13:20:35;;;;;;;;;;;;;;;17.37;31.98;103093.94;5078912;28;849;-57
2022/03/18 13:23:01;;;;;;;;;;;;;;;17.23;32.31;103093.19;5078484;28;734;-58